Hardy, Virginia
Current Conditions -  °F | °C
As of 1:54 AM on Friday 28 Nov 2014 (Local Time) from KROA Reporting Station
Overcast Overcast  
Wind Chill: 25°   Ceiling: 5500
Heat Index: 32°   Visibility: 10mi
Dew Point: 20°   Wind: 8mph
Humidity: 61%   Direction: 350°N
Pressure: 30.27"   Gusts: NA
Location:  37.17°N, 79.73°W
Report Text: KROA 280654Z 35007KT 10SM SCT043 OVC055 00/M07 A3027 RMK AO2 SLP258 T00001067
Loading
Personal Weather Stations






























Interactive Weather Map New forecast layout! Learn more

10-Day Weather Forecast

Advertisements
Track Severe Weather on mobile